TAF AMD CYHK 220311Z 2203/2212 20010KT P6SM SCT003
TEMPO 2203/2212 2SM BR BKN003
PROB30 2203/2208 1/2SM -SG FZFG OVC002 RMK FCST BASED ON AUTO OBS. NXT FCST BY 220600Z
From batch tds/tafs/production/2024/5/22/h03_m20_tafs.cache.xml.gz
Issued (24 days ago)
Forecasts
2203/2212 20010KT 6+SM SCT300

---
fcst_time_to: '2024-05-22T12:00:00Z'
sky_condition:
- sky_cover: SCT
  cloud_base_ft_agl: '300'
wind_speed_kt: '10'
fcst_time_from: '2024-05-22T03:00:00Z'
wind_dir_degrees: '200'
visibility_statute_mi: 6+

TEMPO 2203/2212 2SM BKN300

---
wx_string: BR
fcst_time_to: '2024-05-22T12:00:00Z'
sky_condition:
- sky_cover: BKN
  cloud_base_ft_agl: '300'
fcst_time_from: '2024-05-22T03:00:00Z'
change_indicator: TEMPO
visibility_statute_mi: '2'

OVC200

---
wx_string: "-SG FZFG"
probability: '30'
fcst_time_to: '2024-05-22T08:00:00Z'
sky_condition:
- sky_cover: OVC
  cloud_base_ft_agl: '200'
fcst_time_from: '2024-05-22T03:00:00Z'
change_indicator: PROB
visibility_statute_mi: '0.5'

talk